Terminal Aerodrome Forecast
Issued by NWS

Home | Current Version | Previous Version | Text Only | Print | Product List | Glossary On
Versions: 1 2 3 4 5 6 7 8 9 10 11 12 13 14 15 16 17 18 19 20 21 22 23 24 25 26
000
FTUS45 KSLC 050137 AAA
TAFOGD
TAF AMD
KOGD 050137Z 0502/0524 22015G25KT P6SM VCTS SCT090CB BKN120
     FM050300 18011KT P6SM VCSH SCT080 BKN120
     FM050700 17010KT P6SM VCSH SCT050 BKN090=

USA.gov is the U.S. government's official web portal to all federal, state and local government web resources and services.